Time;durP1;ratioP1;P1;durP2;ratioP2;P2;SDS_P1;SDS_P2;PMS_P1;PMS_P2;Temp;Humidity;BMP_temperature;BMP_pressure;BME280_temperature;BME280_humidity;BME280_pressure;Samples;Min_cycle;Max_cycle;Signal;HPM_P1;HPM_P2
2021/10/17 00:02:22;;;;;;;23.40;14.48;;;;;;;;;;4898415;29;20056;-69
2021/10/17 00:04:49;;;;;;;23.30;14.88;;;;;;;;;;4898176;29;20068;-69
2021/10/17 00:07:16;;;;;;;29.83;14.80;;;;;;;;;;4897731;29;20488;-69
2021/10/17 00:09:42;;;;;;;35.70;14.85;;;;;;;;;;4898447;29;20452;-69
2021/10/17 00:12:10;;;;;;;41.92;15.70;;;;;;;;;;4898167;29;20056;-69
2021/10/17 00:14:37;;;;;;;27.70;14.93;;;;;;;;;;4898308;29;20048;-69
2021/10/17 00:17:05;;;;;;;24.13;14.00;;;;;;;;;;4898291;29;20100;-69
2021/10/17 00:19:31;;;;;;;26.55;15.18;;;;;;;;;;4898373;29;20052;-69
2021/10/17 00:21:58;;;;;;;26.30;14.05;;;;;;;;;;4897730;29;20068;-69
2021/10/17 00:24:25;;;;;;;24.92;14.68;;;;;;;;;;4898530;29;20171;-69
2021/10/17 00:26:51;;;;;;;17.65;12.88;;;;;;;;;;4898215;29;20052;-69
2021/10/17 00:29:18;;;;;;;19.10;11.93;;;;;;;;;;4898174;29;20610;-69
2021/10/17 00:31:44;;;;;;;20.35;11.52;;;;;;;;;;4897691;29;20053;-69
2021/10/17 00:34:11;;;;;;;19.15;10.13;;;;;;;;;;4897957;29;20465;-69
2021/10/17 00:36:38;;;;;;;38.20;12.05;;;;;;;;;;4897962;29;20044;-69
2021/10/17 00:39:05;;;;;;;17.67;11.55;;;;;;;;;;4897808;29;20052;-68
2021/10/17 00:41:31;;;;;;;15.77;10.88;;;;;;;;;;4897755;29;20053;-69
2021/10/17 00:44:02;;;;;;;21.52;10.75;;;;;;;;;;4897695;29;20056;-69
2021/10/17 00:46:29;;;;;;;19.73;11.25;;;;;;;;;;4897738;29;20053;-69
2021/10/17 00:48:55;;;;;;;16.58;10.82;;;;;;;;;;4897708;29;20053;-69
2021/10/17 00:51:22;;;;;;;19.27;12.00;;;;;;;;;;4897321;29;20052;-69
2021/10/17 00:53:49;;;;;;;16.73;11.65;;;;;;;;;;4881061;29;20048;-69
2021/10/17 00:56:15;;;;;;;25.98;12.93;;;;;;;;;;4897641;29;20086;-69
2021/10/17 00:58:42;;;;;;;26.50;12.05;;;;;;;;;;4897487;29;20504;-69
2021/10/17 01:01:09;;;;;;;25.58;12.68;;;;;;;;;;4897643;29;20139;-69
2021/10/17 01:03:36;;;;;;;22.77;13.15;;;;;;;;;;4897245;29;20438;-69
2021/10/17 01:06:04;;;;;;;20.77;12.02;;;;;;;;;;4897256;29;20049;-69
2021/10/17 01:08:31;;;;;;;17.45;12.27;;;;;;;;;;4881136;29;20057;-69
2021/10/17 01:10:57;;;;;;;15.10;11.15;;;;;;;;;;4897246;29;20060;-69
2021/10/17 01:13:25;;;;;;;15.30;11.07;;;;;;;;;;4896966;29;20112;-69
2021/10/17 01:15:52;;;;;;;14.95;10.98;;;;;;;;;;4897314;29;20115;-69
2021/10/17 01:18:20;;;;;;;14.10;11.60;;;;;;;;;;4897253;29;20052;-69
2021/10/17 01:20:48;;;;;;;13.00;11.40;;;;;;;;;;4896756;29;20596;-69
2021/10/17 01:23:16;;;;;;;13.48;10.90;;;;;;;;;;4896992;29;20480;-69
2021/10/17 01:25:43;;;;;;;13.75;11.75;;;;;;;;;;4880511;29;20053;-69
2021/10/17 01:28:10;;;;;;;14.27;11.40;;;;;;;;;;4897161;29;20061;-69
2021/10/17 01:30:37;;;;;;;12.95;11.07;;;;;;;;;;4897091;29;20060;-69
2021/10/17 01:33:04;;;;;;;13.90;11.52;;;;;;;;;;4896783;29;20060;-69
2021/10/17 01:35:30;;;;;;;17.25;11.20;;;;;;;;;;4896951;29;20060;-69
2021/10/17 01:37:57;;;;;;;13.85;11.07;;;;;;;;;;4897033;29;20093;-69
2021/10/17 01:40:24;;;;;;;13.40;11.38;;;;;;;;;;4896903;29;20052;-69
2021/10/17 01:42:50;;;;;;;17.52;12.90;;;;;;;;;;4896559;29;20056;-69
2021/10/17 01:45:17;;;;;;;14.68;10.90;;;;;;;;;;4896987;29;20060;-69
2021/10/17 01:47:51;;;;;;;15.13;12.48;;;;;;;;;;4896710;29;20111;-69
2021/10/17 01:50:18;;;;;;;14.95;11.73;;;;;;;;;;4896570;29;20048;-69
2021/10/17 01:52:45;;;;;;;15.85;12.10;;;;;;;;;;4896501;29;20057;-69
2021/10/17 01:55:12;;;;;;;19.27;13.13;;;;;;;;;;4896925;29;20476;-68
2021/10/17 01:57:39;;;;;;;17.95;12.98;;;;;;;;;;4880281;29;20108;-69
2021/10/17 02:00:07;;;;;;;17.50;12.65;;;;;;;;;;4896624;29;20060;-69
2021/10/17 02:02:34;;;;;;;19.35;13.48;;;;;;;;;;4896515;29;20561;-69
2021/10/17 02:05:02;;;;;;;18.58;13.57;;;;;;;;;;4896565;29;20059;-69
2021/10/17 02:07:28;;;;;;;17.48;12.85;;;;;;;;;;4896615;29;20112;-69
2021/10/17 02:09:55;;;;;;;16.92;12.30;;;;;;;;;;4896434;29;20108;-69
2021/10/17 02:12:25;;;;;;;16.73;11.98;;;;;;;;;;4896294;29;20108;-69
2021/10/17 02:14:53;;;;;;;19.73;11.98;;;;;;;;;;4896457;29;20531;-69
2021/10/17 02:17:20;;;;;;;14.98;11.88;;;;;;;;;;4896632;29;20111;-69
2021/10/17 02:19:46;;;;;;;14.48;12.27;;;;;;;;;;4896168;29;20052;-69
2021/10/17 02:22:13;;;;;;;16.02;12.23;;;;;;;;;;4896395;29;20088;-69
2021/10/17 02:24:40;;;;;;;15.02;11.77;;;;;;;;;;4896391;29;20409;-69
2021/10/17 02:27:07;;;;;;;17.80;12.88;;;;;;;;;;4896344;29;20049;-69
2021/10/17 02:29:33;;;;;;;15.73;11.27;;;;;;;;;;4898283;29;20053;-68
2021/10/17 02:32:00;;;;;;;14.93;11.98;;;;;;;;;;4899974;29;20642;-68
2021/10/17 02:34:27;;;;;;;16.33;12.00;;;;;;;;;;4883309;29;20112;-68
2021/10/17 02:36:54;;;;;;;15.18;12.02;;;;;;;;;;4899966;29;20057;-69
2021/10/17 02:39:20;;;;;;;15.95;11.60;;;;;;;;;;4899970;29;20081;-68
2021/10/17 02:41:47;;;;;;;15.00;11.73;;;;;;;;;;4883036;29;20128;-69
2021/10/17 02:44:13;;;;;;;15.05;11.55;;;;;;;;;;4900039;29;20108;-69
2021/10/17 02:46:40;;;;;;;14.63;11.57;;;;;;;;;;4899832;29;20049;-69
2021/10/17 02:49:07;;;;;;;15.32;11.45;;;;;;;;;;4899869;29;20139;-69
2021/10/17 02:51:34;;;;;;;13.82;10.55;;;;;;;;;;4899570;29;20060;-69
2021/10/17 02:54:00;;;;;;;15.65;11.75;;;;;;;;;;4899778;29;20056;-69
2021/10/17 02:56:27;;;;;;;16.40;11.20;;;;;;;;;;4899799;29;20499;-69
2021/10/17 02:58:54;;;;;;;17.67;11.40;;;;;;;;;;4899676;29;20131;-69
2021/10/17 03:01:20;;;;;;;15.52;12.68;;;;;;;;;;4899232;29;20120;-69
2021/10/17 03:03:47;;;;;;;14.10;11.52;;;;;;;;;;4899398;29;20448;-69
2021/10/17 03:06:14;;;;;;;15.05;11.10;;;;;;;;;;4899225;29;20052;-69
2021/10/17 03:08:40;;;;;;;13.88;11.25;;;;;;;;;;4899119;29;20053;-69
2021/10/17 03:11:07;;;;;;;14.02;11.10;;;;;;;;;;4899135;29;20112;-69
2021/10/17 03:13:34;;;;;;;13.95;11.23;;;;;;;;;;4899397;29;20134;-70
2021/10/17 03:16:02;;;;;;;16.58;11.70;;;;;;;;;;4899151;29;20074;-70
2021/10/17 03:18:29;;;;;;;16.38;12.50;;;;;;;;;;4882693;29;20056;-69
2021/10/17 03:20:56;;;;;;;16.13;12.48;;;;;;;;;;4899051;29;20048;-69
2021/10/17 03:23:22;;;;;;;14.63;11.38;;;;;;;;;;4927054;23;20039;-65
2021/10/17 03:25:49;;;;;;;13.20;10.88;;;;;;;;;;4955400;29;20122;-65
2021/10/17 03:28:15;;;;;;;14.48;11.15;;;;;;;;;;4956412;29;20047;-65
2021/10/17 03:30:43;;;;;;;15.73;11.60;;;;;;;;;;4956154;29;20130;-65
2021/10/17 03:33:09;;;;;;;17.58;12.45;;;;;;;;;;4950852;29;20060;-65
2021/10/17 03:35:36;;;;;;;14.30;11.35;;;;;;;;;;4937105;29;20055;-65
2021/10/17 03:38:02;;;;;;;17.13;11.80;;;;;;;;;;4936821;29;20181;-65
2021/10/17 03:40:29;;;;;;;14.35;11.20;;;;;;;;;;4936842;29;20052;-65
2021/10/17 03:42:56;;;;;;;14.55;11.68;;;;;;;;;;4936489;29;20056;-65
2021/10/17 03:45:23;;;;;;;15.57;11.85;;;;;;;;;;4936881;29;20133;-65
2021/10/17 03:47:49;;;;;;;14.55;12.13;;;;;;;;;;4936374;29;20494;-65
2021/10/17 03:50:16;;;;;;;16.08;12.77;;;;;;;;;;4936749;29;20059;-65
2021/10/17 03:52:43;;;;;;;16.30;12.32;;;;;;;;;;4936451;29;20059;-65
2021/10/17 03:55:10;;;;;;;18.60;13.00;;;;;;;;;;4936523;29;20525;-65
2021/10/17 03:57:36;;;;;;;17.35;13.45;;;;;;;;;;4936498;29;20510;-65
2021/10/17 04:00:04;;;;;;;16.90;12.65;;;;;;;;;;4936426;29;20059;-65
2021/10/17 04:02:30;;;;;;;17.83;12.20;;;;;;;;;;4936148;29;20102;-65
2021/10/17 04:04:57;;;;;;;16.80;12.77;;;;;;;;;;4936499;29;20058;-65
2021/10/17 04:07:24;;;;;;;27.25;13.75;;;;;;;;;;4936325;29;20107;-65
2021/10/17 04:09:50;;;;;;;28.67;14.82;;;;;;;;;;4936344;29;20056;-66
2021/10/17 04:12:17;;;;;;;20.63;13.63;;;;;;;;;;4936182;29;20177;-65
2021/10/17 04:14:43;;;;;;;21.17;13.35;;;;;;;;;;4936076;29;20060;-65
2021/10/17 04:17:10;;;;;;;29.55;14.95;;;;;;;;;;4919442;29;20074;-65
2021/10/17 04:19:37;;;;;;;30.00;13.45;;;;;;;;;;4936415;29;20051;-65
2021/10/17 04:22:03;;;;;;;28.60;14.60;;;;;;;;;;4935839;29;20052;-65
2021/10/17 04:24:30;;;;;;;26.88;13.95;;;;;;;;;;4935921;29;20055;-65
2021/10/17 04:26:57;;;;;;;19.25;12.25;;;;;;;;;;4936034;29;20111;-65
2021/10/17 04:29:23;;;;;;;25.50;13.65;;;;;;;;;;4935854;29;20495;-65
2021/10/17 04:31:50;;;;;;;25.10;13.95;;;;;;;;;;4935920;29;20533;-65
2021/10/17 04:34:16;;;;;;;19.92;12.80;;;;;;;;;;4935705;29;20055;-65
2021/10/17 04:36:43;;;;;;;24.17;13.63;;;;;;;;;;4935682;29;20119;-65
2021/10/17 04:39:10;;;;;;;21.48;13.73;;;;;;;;;;4935868;29;20479;-65
2021/10/17 04:41:38;;;;;;;18.95;12.02;;;;;;;;;;4935461;29;20129;-65
2021/10/17 04:44:04;;;;;;;19.67;12.48;;;;;;;;;;4918752;29;20205;-65
2021/10/17 04:46:31;;;;;;;19.73;13.45;;;;;;;;;;4934208;29;20051;-65
2021/10/17 04:48:58;;;;;;;23.88;14.07;;;;;;;;;;4935511;29;20051;-64
2021/10/17 04:51:25;;;;;;;20.48;14.20;;;;;;;;;;4934919;29;20051;-65
2021/10/17 04:53:51;;;;;;;21.90;14.05;;;;;;;;;;4935367;29;20130;-65
2021/10/17 04:56:18;;;;;;;18.17;12.73;;;;;;;;;;4935577;29;20052;-65
2021/10/17 04:58:44;;;;;;;20.40;13.88;;;;;;;;;;4935513;29;20051;-65
2021/10/17 05:01:11;;;;;;;41.15;15.20;;;;;;;;;;4935150;29;20056;-65
2021/10/17 05:03:38;;;;;;;45.08;16.13;;;;;;;;;;4935159;29;20052;-65
2021/10/17 05:06:05;;;;;;;63.25;16.83;;;;;;;;;;4935303;29;20553;-65
2021/10/17 05:08:32;;;;;;;26.27;16.25;;;;;;;;;;4935216;29;20051;-65
2021/10/17 05:10:58;;;;;;;45.63;17.33;;;;;;;;;;4935235;29;20499;-65
2021/10/17 05:13:25;;;;;;;26.60;15.30;;;;;;;;;;4934904;29;20056;-65
2021/10/17 05:15:52;;;;;;;29.98;16.02;;;;;;;;;;4935038;29;20060;-65
2021/10/17 05:18:18;;;;;;;27.25;15.68;;;;;;;;;;4935088;29;20107;-65
2021/10/17 05:20:45;;;;;;;25.98;15.38;;;;;;;;;;4918425;29;20047;-65
2021/10/17 05:23:13;;;;;;;24.98;15.80;;;;;;;;;;4934516;29;20499;-65
2021/10/17 05:25:41;;;;;;;25.98;16.02;;;;;;;;;;4935097;29;20048;-65
2021/10/17 05:28:08;;;;;;;27.38;15.52;;;;;;;;;;4933423;29;20052;-65
2021/10/17 05:30:35;;;;;;;24.38;14.75;;;;;;;;;;4934843;29;20494;-65
2021/10/17 05:33:02;;;;;;;22.77;15.70;;;;;;;;;;4934475;29;20047;-65
2021/10/17 05:35:30;;;;;;;26.02;15.02;;;;;;;;;;4934969;29;20058;-65
2021/10/17 05:37:56;;;;;;;28.80;16.13;;;;;;;;;;4934764;29;20471;-65
2021/10/17 05:40:23;;;;;;;29.63;16.52;;;;;;;;;;4934700;29;20055;-65
2021/10/17 05:42:50;;;;;;;30.30;16.63;;;;;;;;;;4934449;29;20052;-65
2021/10/17 05:45:16;;;;;;;26.92;15.88;;;;;;;;;;4934518;29;20052;-65
2021/10/17 05:47:43;;;;;;;28.30;15.43;;;;;;;;;;4937498;29;20043;-67
2021/10/17 05:50:09;;;;;;;26.52;15.32;;;;;;;;;;4939231;29;20424;-66
2021/10/17 05:52:36;;;;;;;25.60;14.73;;;;;;;;;;4940156;29;20081;-66
2021/10/17 05:55:04;;;;;;;29.55;16.30;;;;;;;;;;4939573;29;20087;-66
2021/10/17 05:57:32;;;;;;;23.83;15.10;;;;;;;;;;4939736;29;20044;-66
2021/10/17 05:59:58;;;;;;;28.40;15.27;;;;;;;;;;4939653;29;20055;-66
2021/10/17 06:02:25;;;;;;;27.10;15.20;;;;;;;;;;4935728;29;20052;-65
2021/10/17 06:04:51;;;;;;;26.30;15.63;;;;;;;;;;4937160;29;20075;-65
2021/10/17 06:07:19;;;;;;;24.75;14.35;;;;;;;;;;4938934;29;20051;-65
2021/10/17 06:09:46;;;;;;;22.05;14.55;;;;;;;;;;4939001;29;20056;-65
2021/10/17 06:12:12;;;;;;;22.00;13.98;;;;;;;;;;4940024;29;20063;-66
2021/10/17 06:14:39;;;;;;;20.52;14.18;;;;;;;;;;4941139;29;20052;-65
2021/10/17 06:17:05;;;;;;;19.88;13.48;;;;;;;;;;4941381;29;20048;-65
2021/10/17 06:19:32;;;;;;;21.55;13.43;;;;;;;;;;4941554;29;20055;-66
2021/10/17 06:22:03;;;;;;;21.35;13.50;;;;;;;;;;4940907;29;20047;-65
2021/10/17 06:24:31;;;;;;;20.48;14.00;;;;;;;;;;4941184;29;20523;-66
2021/10/17 06:26:57;;;;;;;19.77;13.77;;;;;;;;;;4939119;29;20055;-65
2021/10/17 06:29:24;;;;;;;18.98;13.90;;;;;;;;;;4941503;29;20490;-66
2021/10/17 06:31:51;;;;;;;19.70;14.10;;;;;;;;;;4941903;29;20484;-66
2021/10/17 06:34:18;;;;;;;19.58;14.07;;;;;;;;;;4940847;29;20060;-65
2021/10/17 06:36:44;;;;;;;19.65;13.43;;;;;;;;;;4940306;29;20499;-65
2021/10/17 06:39:11;;;;;;;18.83;13.52;;;;;;;;;;4938079;29;20051;-65
2021/10/17 06:41:37;;;;;;;19.48;14.25;;;;;;;;;;4937803;29;20503;-65
2021/10/17 06:44:05;;;;;;;19.42;13.15;;;;;;;;;;4937603;29;20056;-65
2021/10/17 06:46:32;;;;;;;17.15;13.23;;;;;;;;;;4937990;29;20051;-65
2021/10/17 06:48:58;;;;;;;20.70;13.95;;;;;;;;;;4937964;29;20051;-65
2021/10/17 06:51:25;;;;;;;18.05;13.05;;;;;;;;;;4937704;29;20055;-65
2021/10/17 06:53:51;;;;;;;17.88;12.90;;;;;;;;;;4937768;29;20062;-65
2021/10/17 06:56:18;;;;;;;17.58;13.27;;;;;;;;;;4937799;29;20056;-65
2021/10/17 06:58:45;;;;;;;18.33;12.30;;;;;;;;;;4937505;29;20048;-65
2021/10/17 07:01:12;;;;;;;17.70;11.90;;;;;;;;;;4937451;29;20114;-65
2021/10/17 07:03:39;;;;;;;17.48;12.63;;;;;;;;;;4937455;29;20047;-65
2021/10/17 07:06:06;;;;;;;17.42;12.85;;;;;;;;;;4937353;29;20055;-65
2021/10/17 07:08:33;;;;;;;17.08;12.68;;;;;;;;;;4937556;29;20139;-64
2021/10/17 07:11:00;;;;;;;16.20;13.00;;;;;;;;;;4936413;29;20062;-64
2021/10/17 07:13:27;;;;;;;16.50;13.15;;;;;;;;;;4937163;29;20048;-64
2021/10/17 07:15:54;;;;;;;16.52;12.63;;;;;;;;;;4936858;29;20118;-64
2021/10/17 07:18:21;;;;;;;18.10;13.85;;;;;;;;;;4936050;29;20463;-64
2021/10/17 07:20:49;;;;;;;23.30;15.43;;;;;;;;;;4934007;29;20070;-64
2021/10/17 07:23:16;;;;;;;21.08;14.85;;;;;;;;;;4935318;29;20051;-63
2021/10/17 07:25:43;;;;;;;340.48;32.95;;;;;;;;;;4935135;29;20775;-63
2021/10/17 07:28:10;;;;;;;23.75;16.20;;;;;;;;;;4935282;29;20122;-63
2021/10/17 07:30:36;;;;;;;22.67;14.82;;;;;;;;;;4934952;29;20051;-63
2021/10/17 07:33:03;;;;;;;21.77;16.30;;;;;;;;;;4933905;29;20087;-64
2021/10/17 07:35:30;;;;;;;22.42;16.08;;;;;;;;;;4934693;29;20515;-64
2021/10/17 07:37:57;;;;;;;22.05;16.13;;;;;;;;;;4934622;29;20490;-64
2021/10/17 07:40:24;;;;;;;18.88;14.60;;;;;;;;;;4933970;29;20622;-64
2021/10/17 07:42:51;;;;;;;15.98;12.45;;;;;;;;;;4934259;29;20064;-63
2021/10/17 07:45:18;;;;;;;18.85;14.43;;;;;;;;;;4934236;29;20201;-63
2021/10/17 07:47:44;;;;;;;18.58;14.75;;;;;;;;;;4934483;29;20044;-63
2021/10/17 07:50:11;;;;;;;18.90;14.77;;;;;;;;;;4934616;29;20562;-63
2021/10/17 07:52:38;;;;;;;19.13;14.27;;;;;;;;;;4934282;29;20059;-63
2021/10/17 07:55:06;;;;;;;18.67;13.75;;;;;;;;;;4934640;29;20103;-63
2021/10/17 07:57:52;;;;;;;25.23;17.10;;;;;;;;;;4934135;29;20060;-63
2021/10/17 08:00:25;;;;;;;33.88;22.25;;;;;;;;;;4934526;29;20055;-63
2021/10/17 08:02:52;;;;;;;33.70;21.50;;;;;;;;;;4933958;29;20098;-63
2021/10/17 08:05:20;;;;;;;30.60;20.85;;;;;;;;;;4933891;29;20066;-63
2021/10/17 08:07:47;;;;;;;27.73;20.40;;;;;;;;;;4934311;29;20138;-64
2021/10/17 08:10:14;;;;;;;24.35;17.75;;;;;;;;;;4934026;29;20103;-63
2021/10/17 08:12:41;;;;;;;27.52;18.77;;;;;;;;;;4932493;29;20059;-63
2021/10/17 08:15:09;;;;;;;23.95;16.95;;;;;;;;;;4933558;29;20055;-64
2021/10/17 08:17:35;;;;;;;19.98;15.93;;;;;;;;;;4917324;29;20056;-64
2021/10/17 08:20:04;;;;;;;19.27;15.38;;;;;;;;;;4933865;29;20059;-63
2021/10/17 08:22:32;;;;;;;23.10;17.45;;;;;;;;;;4933712;29;20059;-64
2021/10/17 08:24:59;;;;;;;21.40;16.27;;;;;;;;;;4933387;29;20059;-64
2021/10/17 08:27:26;;;;;;;22.17;15.80;;;;;;;;;;4932709;29;20048;-65
2021/10/17 08:29:52;;;;;;;27.63;17.13;;;;;;;;;;4933737;29;20468;-63
2021/10/17 08:32:19;;;;;;;21.70;16.08;;;;;;;;;;4933658;29;20154;-64
2021/10/17 08:34:46;;;;;;;23.45;16.23;;;;;;;;;;4933667;29;20467;-64
2021/10/17 08:37:13;;;;;;;23.83;15.88;;;;;;;;;;4933292;29;20055;-64
2021/10/17 08:39:39;;;;;;;20.90;15.20;;;;;;;;;;4933792;29;20551;-63
2021/10/17 08:42:06;;;;;;;22.67;16.17;;;;;;;;;;4933517;29;20058;-64
2021/10/17 08:44:33;;;;;;;19.17;14.65;;;;;;;;;;4925344;29;20313;-65
2021/10/17 08:47:00;;;;;;;21.10;15.18;;;;;;;;;;4929736;29;20059;-66
2021/10/17 08:49:29;;;;;;;20.50;14.48;;;;;;;;;;4910977;29;20083;-66
2021/10/17 08:51:57;;;;;;;21.77;15.05;;;;;;;;;;4902927;29;20051;-66
2021/10/17 08:54:24;;;;;;;20.00;14.77;;;;;;;;;;4931819;29;20099;-65
2021/10/17 08:56:51;;;;;;;20.02;15.10;;;;;;;;;;4931855;29;20054;-65
2021/10/17 08:59:17;;;;;;;19.58;14.13;;;;;;;;;;4931417;29;20448;-66
2021/10/17 09:01:48;;;;;;;27.15;16.38;;;;;;;;;;4930537;29;20130;-65
2021/10/17 09:04:17;;;;;;;19.48;14.75;;;;;;;;;;4922512;29;20529;-66
2021/10/17 09:06:46;;;;;;;21.60;14.45;;;;;;;;;;4931015;29;20063;-66
2021/10/17 09:09:15;;;;;;;19.58;14.90;;;;;;;;;;4931442;29;20510;-66
2021/10/17 09:11:47;;;;;;;21.77;15.35;;;;;;;;;;4931297;29;20079;-65
2021/10/17 09:14:24;;;;;;;23.97;16.20;;;;;;;;;;4931525;29;20050;-65
2021/10/17 09:16:52;;;;;;;22.45;14.95;;;;;;;;;;4928963;29;20303;-66
2021/10/17 09:19:24;;;;;;;21.58;16.05;;;;;;;;;;4931825;29;20071;-66
2021/10/17 09:21:59;;;;;;;22.02;15.55;;;;;;;;;;4931103;29;20727;-66
2021/10/17 09:24:29;;;;;;;21.88;15.35;;;;;;;;;;4923549;29;20082;-66
2021/10/17 09:27:10;;;;;;;22.65;15.88;;;;;;;;;;4931425;29;20130;-66
2021/10/17 09:29:38;;;;;;;21.58;15.80;;;;;;;;;;4931428;29;20047;-66
2021/10/17 09:32:17;;;;;;;21.38;16.00;;;;;;;;;;4930998;29;20063;-66
2021/10/17 09:34:58;;;;;;;19.83;14.82;;;;;;;;;;4930806;29;20052;-66
2021/10/17 09:37:39;;;;;;;22.17;15.88;;;;;;;;;;4930720;29;20044;-65
2021/10/17 09:40:18;;;;;;;23.27;17.05;;;;;;;;;;4929229;29;20486;-66
2021/10/17 09:43:05;;;;;;;18.27;13.60;;;;;;;;;;4930814;29;20156;-66
2021/10/17 09:45:32;;;;;;;22.55;14.07;;;;;;;;;;4926703;29;20392;-70
2021/10/17 09:48:00;;;;;;;21.52;14.32;;;;;;;;;;4930951;29;20143;-69
2021/10/17 09:50:30;;;;;;;17.80;13.63;;;;;;;;;;4890464;29;20166;-69
2021/10/17 09:52:57;;;;;;;17.58;12.65;;;;;;;;;;4906152;29;20086;-68
2021/10/17 09:55:25;;;;;;;19.38;12.63;;;;;;;;;;4927362;29;20060;-69
2021/10/17 09:57:51;;;;;;;19.38;14.38;;;;;;;;;;4930692;29;20079;-69
2021/10/17 10:00:19;;;;;;;18.90;13.70;;;;;;;;;;4930930;29;20062;-68
2021/10/17 10:02:51;;;;;;;18.35;13.73;;;;;;;;;;4929844;29;20257;-68
2021/10/17 10:05:27;;;;;;;19.05;12.75;;;;;;;;;;4931049;29;20078;-68
2021/10/17 10:08:01;;;;;;;17.73;12.35;;;;;;;;;;4931048;29;20094;-65
2021/10/17 10:10:31;;;;;;;20.13;13.38;;;;;;;;;;4930323;29;20094;-65
2021/10/17 10:13:01;;;;;;;21.98;14.55;;;;;;;;;;4953752;23;20062;-70
2021/10/17 10:15:28;;;;;;;19.15;13.48;;;;;;;;;;4924374;29;20052;-70
2021/10/17 10:17:55;;;;;;;21.55;16.17;;;;;;;;;;4926625;29;20060;-70
2021/10/17 10:20:23;;;;;;;19.75;14.27;;;;;;;;;;4933249;29;20044;-70
2021/10/17 10:22:50;;;;;;;21.02;14.60;;;;;;;;;;4942257;29;20047;-70
2021/10/17 10:25:17;;;;;;;23.25;15.73;;;;;;;;;;4939149;29;20047;-70
2021/10/17 10:27:44;;;;;;;19.83;14.65;;;;;;;;;;4932830;29;20051;-70
2021/10/17 10:30:21;;;;;;;26.13;16.63;;;;;;;;;;4941522;29;20048;-70
2021/10/17 10:33:18;;;;;;;23.30;15.73;;;;;;;;;;4939988;29;20055;-70
2021/10/17 10:36:17;;;;;;;21.58;15.45;;;;;;;;;;4939071;29;20536;-70
2021/10/17 10:38:52;;;;;;;21.83;15.77;;;;;;;;;;4908266;29;20524;-71
2021/10/17 10:41:26;;;;;;;21.95;16.27;;;;;;;;;;4940602;29;20047;-71
2021/10/17 10:44:12;;;;;;;23.75;15.55;;;;;;;;;;4936355;29;20102;-70
2021/10/17 10:46:39;;;;;;;21.33;14.90;;;;;;;;;;4933906;29;20462;-70
2021/10/17 10:49:06;;;;;;;20.65;14.98;;;;;;;;;;4940899;29;20103;-70
2021/10/17 10:51:40;;;;;;;21.52;14.25;;;;;;;;;;4941618;29;20099;-70
2021/10/17 10:54:26;;;;;;;30.00;18.25;;;;;;;;;;4942241;29;20047;-70
2021/10/17 10:56:57;;;;;;;24.02;15.50;;;;;;;;;;4921702;29;20083;-70
2021/10/17 10:59:48;;;;;;;18.65;14.00;;;;;;;;;;4937735;29;20463;-70
2021/10/17 11:02:17;;;;;;;19.73;14.38;;;;;;;;;;4937029;29;20055;-70
2021/10/17 11:04:44;;;;;;;18.90;12.32;;;;;;;;;;4922818;29;20055;-74
2021/10/17 11:07:36;;;;;;;18.58;13.27;;;;;;;;;;4944398;29;20056;-74
2021/10/17 11:10:35;;;;;;;18.25;13.70;;;;;;;;;;4939299;29;20059;-73
2021/10/17 11:13:03;;;;;;;21.80;15.82;;;;;;;;;;4924936;29;20063;-70
2021/10/17 11:15:34;;;;;;;20.52;14.63;;;;;;;;;;4943457;29;20090;-74
2021/10/17 11:18:09;;;;;;;21.95;14.98;;;;;;;;;;4920429;29;20056;-73
2021/10/17 11:20:38;;;;;;;21.45;15.00;;;;;;;;;;4932739;29;20047;-73
2021/10/17 11:23:07;;;;;;;20.00;13.75;;;;;;;;;;4926052;29;20047;-73
2021/10/17 11:25:34;;;;;;;18.77;13.30;;;;;;;;;;4918882;29;20071;-74
2021/10/17 11:28:03;;;;;;;20.17;13.07;;;;;;;;;;4935036;29;20147;-73
2021/10/17 11:30:32;;;;;;;17.83;13.77;;;;;;;;;;4910502;29;20100;-73
2021/10/17 11:33:01;;;;;;;20.20;13.65;;;;;;;;;;4925526;29;20055;-71
2021/10/17 11:35:36;;;;;;;19.33;14.38;;;;;;;;;;4943637;29;20051;-72
2021/10/17 11:38:04;;;;;;;19.02;13.60;;;;;;;;;;4922558;29;20103;-71
2021/10/17 11:40:52;;;;;;;19.17;13.52;;;;;;;;;;4946522;29;20131;-72
2021/10/17 11:43:19;;;;;;;22.20;14.05;;;;;;;;;;4940139;29;20129;-71
2021/10/17 11:45:47;;;;;;;19.02;14.60;;;;;;;;;;4941034;29;20087;-72
2021/10/17 11:48:16;;;;;;;17.42;14.05;;;;;;;;;;4947532;29;20047;-75
2021/10/17 11:50:47;;;;;;;18.70;13.93;;;;;;;;;;4918863;29;20099;-73
2021/10/17 11:53:16;;;;;;;19.65;14.65;;;;;;;;;;4926020;29;20101;-72
2021/10/17 11:55:50;;;;;;;22.83;15.13;;;;;;;;;;4942907;29;20103;-72
2021/10/17 11:58:22;;;;;;;18.17;13.60;;;;;;;;;;4939904;29;20066;-71
2021/10/17 12:00:51;;;;;;;21.40;15.15;;;;;;;;;;4944828;29;20055;-69
2021/10/17 12:03:19;;;;;;;18.20;13.43;;;;;;;;;;4940926;29;20070;-69
2021/10/17 12:05:46;;;;;;;19.92;13.82;;;;;;;;;;4925451;29;20055;-70
2021/10/17 12:08:34;;;;;;;18.83;12.70;;;;;;;;;;4941247;29;20066;-71
2021/10/17 12:11:04;;;;;;;19.65;13.32;;;;;;;;;;4939073;29;20063;-71
2021/10/17 12:13:50;;;;;;;19.00;13.52;;;;;;;;;;4942170;28;20054;-71
2021/10/17 12:16:18;;;;;;;18.98;13.98;;;;;;;;;;4944928;29;20043;-69
2021/10/17 12:18:58;;;;;;;21.33;14.77;;;;;;;;;;4939672;29;20052;-69
2021/10/17 12:21:28;;;;;;;19.23;13.25;;;;;;;;;;4940463;29;20536;-70
2021/10/17 12:23:58;;;;;;;23.20;14.55;;;;;;;;;;4938759;29;20133;-69
2021/10/17 12:26:28;;;;;;;21.48;14.50;;;;;;;;;;4925316;29;20047;-70
2021/10/17 12:29:14;;;;;;;20.73;14.40;;;;;;;;;;4940556;29;20074;-70
2021/10/17 12:31:43;;;;;;;20.77;13.98;;;;;;;;;;4941916;29;20065;-74
2021/10/17 12:34:11;;;;;;;21.50;14.80;;;;;;;;;;4916698;29;20055;-69
2021/10/17 12:36:40;;;;;;;21.20;13.75;;;;;;;;;;4940006;29;20396;-72
2021/10/17 12:39:13;;;;;;;18.90;12.98;;;;;;;;;;4940523;29;20054;-71
2021/10/17 12:41:41;;;;;;;19.45;13.68;;;;;;;;;;4937006;29;20692;-71
2021/10/17 12:44:09;;;;;;;21.88;14.88;;;;;;;;;;4943025;29;20109;-72
2021/10/17 12:46:36;;;;;;;22.00;15.23;;;;;;;;;;4939731;29;20055;-73
2021/10/17 12:49:11;;;;;;;20.08;13.82;;;;;;;;;;4917155;29;20640;-69
2021/10/17 12:51:44;;;;;;;19.98;14.65;;;;;;;;;;4916010;29;20048;-68
2021/10/17 12:54:15;;;;;;;19.98;14.98;;;;;;;;;;4940186;29;20055;-69
2021/10/17 12:56:51;;;;;;;20.17;13.73;;;;;;;;;;4940001;29;20059;-68
2021/10/17 12:59:28;;;;;;;20.45;14.05;;;;;;;;;;4920527;29;20103;-69
2021/10/17 13:02:10;;;;;;;19.40;13.43;;;;;;;;;;4939703;29;20063;-68
2021/10/17 13:04:56;;;;;;;19.67;14.13;;;;;;;;;;4924870;29;20054;-68
2021/10/17 13:07:22;;;;;;;20.45;14.48;;;;;;;;;;4940579;29;20073;-68
2021/10/17 13:09:51;;;;;;;20.63;14.13;;;;;;;;;;4935357;29;20056;-68
2021/10/17 13:12:25;;;;;;;20.40;14.25;;;;;;;;;;4939233;29;20059;-69
2021/10/17 13:15:09;;;;;;;22.58;14.98;;;;;;;;;;4937538;29;20059;-68
2021/10/17 13:17:38;;;;;;;19.45;13.75;;;;;;;;;;4934966;29;20102;-69
2021/10/17 13:20:07;;;;;;;21.75;15.52;;;;;;;;;;4922145;29;20051;-68
2021/10/17 13:22:35;;;;;;;23.33;15.82;;;;;;;;;;4937582;29;20491;-68
2021/10/17 13:25:02;;;;;;;19.48;13.75;;;;;;;;;;4923778;29;20569;-70
2021/10/17 13:27:29;;;;;;;21.50;14.57;;;;;;;;;;4940120;29;20052;-70
2021/10/17 13:29:56;;;;;;;23.60;14.63;;;;;;;;;;4940832;29;20494;-73
2021/10/17 13:32:28;;;;;;;23.42;15.32;;;;;;;;;;4933469;29;20052;-72
2021/10/17 13:34:57;;;;;;;19.67;14.48;;;;;;;;;;4922265;29;20098;-71
2021/10/17 13:37:24;;;;;;;18.83;13.63;;;;;;;;;;4943617;29;20110;-71
2021/10/17 13:39:51;;;;;;;21.20;15.35;;;;;;;;;;4939420;29;20076;-72
2021/10/17 13:42:18;;;;;;;19.00;14.43;;;;;;;;;;4940349;29;20051;-71
2021/10/17 13:44:45;;;;;;;23.17;14.57;;;;;;;;;;4939728;29;20107;-73
2021/10/17 13:47:14;;;;;;;20.95;15.48;;;;;;;;;;4940110;29;20043;-74
2021/10/17 13:49:41;;;;;;;36.28;23.35;;;;;;;;;;4939452;29;20055;-73
2021/10/17 13:52:07;;;;;;;28.35;18.60;;;;;;;;;;4922612;29;20486;-72
2021/10/17 13:54:34;;;;;;;20.45;15.32;;;;;;;;;;4940302;29;20051;-71
2021/10/17 13:57:03;;;;;;;23.38;16.42;;;;;;;;;;4939878;29;20071;-72
2021/10/17 13:59:30;;;;;;;21.88;16.13;;;;;;;;;;4939522;29;20047;-73
2021/10/17 14:02:00;;;;;;;19.95;14.85;;;;;;;;;;4918873;29;20047;-74
2021/10/17 14:04:28;;;;;;;22.33;15.43;;;;;;;;;;4922281;29;20509;-72
2021/10/17 14:06:55;;;;;;;23.10;15.65;;;;;;;;;;4935445;29;20051;-75
2021/10/17 14:09:22;;;;;;;24.55;16.27;;;;;;;;;;4904356;29;20095;-70
2021/10/17 14:11:49;;;;;;;21.42;15.52;;;;;;;;;;4941483;29;20051;-71
2021/10/17 14:14:18;;;;;;;27.10;16.08;;;;;;;;;;4934315;29;20043;-69
2021/10/17 14:16:44;;;;;;;24.38;16.52;;;;;;;;;;4938031;29;20051;-69
2021/10/17 14:19:11;;;;;;;23.90;15.40;;;;;;;;;;4936929;29;20058;-69
2021/10/17 14:21:40;;;;;;;26.33;17.35;;;;;;;;;;4939006;29;20115;-70
2021/10/17 14:24:07;;;;;;;23.63;17.00;;;;;;;;;;4918917;29;20118;-68
2021/10/17 14:26:34;;;;;;;26.15;16.83;;;;;;;;;;4927567;29;20051;-69